Main page
METAR-TAF:

METAR-TAF

Airports :

Gatwick Airport

London-Gatwick, England

latitude: 51-09N, longitude: 000-11W, elevation: 62 m

Current weather observation

The report was made 22 minutes ago, at 05:20 UTC
Wind 7 kt from the North/Northeast
Temperature 16°C
Humidity 68%
Pressure 1022 hPa
Visibility 10 km or more
Scattered clouds at a height of 3600 ft

METAR: EGKK 150520Z 03007KT 9999 SCT036 16/10 Q1022

Time: 06:42 (05:42 UTC)

Forecast

The report was made 48 minutes ago, at 04:54 UTC
Forecast valid from 15 at 06 UTC to 16 at 12 UTC
Wind 10 kt from the North/Northeast
Visibility 10 km or more
Scattered clouds at a height of 3500 ft
Becoming
from 15 at 09 UTC to 15 at 12 UTC
Wind 2 kt from variable directions
Becoming
from 15 at 15 UTC to 15 at 18 UTC
Wind 10 kt from the South
Probability 40%
from 16 at 00 UTC to 16 at 07 UTC
Visibility: 8000 m

TAF: EGKK 150454Z 1506/1612 03010KT 9999 SCT035 BECMG 1509/1512 VRB02KT BECMG 1515/1518 18010KT PROB40 1600/1607 8000

Weather observations and forecasts of more than 4000 airports (METAR and TAF reports).

The available stations are represented by yellow and red dots on the map.

Hover mouse over dot to see the name of the station.

Then click to see weather observations and forecasts.

To change the map : click on the green buttons with a black cross to zoom in, on the green button with a dash to zoom out, or on the green arrows for adjacent maps.


METAR-TAF: